KACV

California Redwood Coast-Humboldt County Airport

Arcata/Eureka, California, USA
KACV 182132Z 1822/1918 31008KT P6SM SCT005 FM190400 16005KT 6SM HZ BKN005 FM190900 VRB03KT 4SM BR OVC003
Issued Valid From Valid To
Jul-18 @ 21:32 UTC
(59 minutes ago)
Jul-18 @ 22:00 UTC
(31 minutes ago)
Jul-19 @ 18:00 UTC
(in 19 hours)
Jul-18 @ 22:00 to Jul-19 @ 04:00
KACV 182132Z 1822/1918 31008KT P6SM SCT005
Wind Visibility Clouds
310° at 8 knots Greater than 6 miles
  • Scattered at 500' AGL
From Jul-19 @ 04:00 to Jul-19 @ 09:00
FM190400 16005KT 6SM HZ BKN005
Wind Visibility Clouds Conditions
160° at 5 knots 6 miles
  • Broken at 500' AGL
  • Haze
From Jul-19 @ 09:00 to Jul-19 @ 18:00
FM190900 VRB03KT 4SM BR OVC003
Wind Visibility Clouds Conditions
Variable at 3 knots 4 miles
  • Overcast at 300' AGL
  • Mist
KACV 182132Z 1822/1918 31008KT P6SM SCT005 FM190400 16005KT 6SM HZ BKN005 FM190900 VRB03KT 4SM BR OVC003
Issued Jul-18 @ 21:32 UTC
(59 minutes ago)
Valid From Jul-18 @ 22:00 UTC
(31 minutes ago)
Valid To Jul-19 @ 18:00 UTC
(in 19 hours)
Jul-18 @ 22:00 - Jul-19 @ 04:00
Wind Visibility
310° at 8 knots Greater than 6 miles
Clouds
  • Scattered at 500' AGL
From Jul-19 @ 04:00 - Jul-19 @ 09:00
Wind Visibility
160° at 5 knots 6 miles
Clouds
  • Broken at 500' AGL
Conditions
  • Haze
From Jul-19 @ 09:00 - Jul-19 @ 18:00
Wind Visibility
Variable at 3 knots 4 miles
Clouds
  • Overcast at 300' AGL
Conditions
  • Mist